createdAt,value
2022-10-24T00:01:19.657Z,16.00
2022-10-24T00:03:46.865Z,14.43
2022-10-24T00:06:14.412Z,13.73
2022-10-24T00:08:42.800Z,13.93
2022-10-24T00:11:13.871Z,14.63
2022-10-24T00:13:41.295Z,14.15
2022-10-24T00:16:08.769Z,15.43
2022-10-24T00:18:35.714Z,14.70
2022-10-24T00:21:02.750Z,15.30
2022-10-24T00:23:29.604Z,14.73
2022-10-24T00:25:56.816Z,13.50
2022-10-24T00:28:23.701Z,14.70
2022-10-24T00:30:53.720Z,14.63
2022-10-24T00:33:21.061Z,15.25
2022-10-24T00:35:48.071Z,14.43
2022-10-24T00:38:15.192Z,15.20
2022-10-24T00:40:42.205Z,15.85
2022-10-24T00:43:16.688Z,14.82
2022-10-24T00:48:25.134Z,18.08
2022-10-24T00:50:57.905Z,15.75
2022-10-24T00:53:26.969Z,15.50
2022-10-24T00:55:56.849Z,16.33
2022-10-24T00:58:27.551Z,15.25
2022-10-24T01:00:54.522Z,16.08
2022-10-24T01:03:21.549Z,15.48
2022-10-24T01:06:22.237Z,16.48
2022-10-24T01:09:04.008Z,16.63
2022-10-24T01:11:50.989Z,18.00
2022-10-24T01:14:17.852Z,17.05
2022-10-24T01:17:02.691Z,16.23
2022-10-24T01:22:25.371Z,17.83
2022-10-24T01:25:19.645Z,19.38
2022-10-24T01:28:13.083Z,18.33
2022-10-24T01:31:02.017Z,22.67
2022-10-24T01:33:35.119Z,23.83
2022-10-24T01:36:11.238Z,25.23
2022-10-24T01:38:52.604Z,26.15
2022-10-24T01:41:23.467Z,30.05
2022-10-24T01:44:07.611Z,31.45
2022-10-24T01:46:57.677Z,33.00
2022-10-24T01:49:35.632Z,35.30
2022-10-24T01:52:08.040Z,38.60
2022-10-24T01:54:37.563Z,39.35
2022-10-24T01:57:05.679Z,40.95
2022-10-24T01:59:32.501Z,41.90
2022-10-24T02:02:12.548Z,41.17
2022-10-24T02:04:46.153Z,44.20
2022-10-24T02:07:14.297Z,43.55
2022-10-24T02:09:43.703Z,42.90
2022-10-24T02:12:14.296Z,48.03
2022-10-24T02:14:46.921Z,47.58
2022-10-24T02:17:14.350Z,45.22
2022-10-24T02:19:41.699Z,43.25
2022-10-24T02:22:23.583Z,42.10
2022-10-24T02:25:11.125Z,42.80
2022-10-24T02:27:49.023Z,42.53
2022-10-24T02:30:22.121Z,42.63
2022-10-24T02:32:56.416Z,42.67
2022-10-24T02:35:27.141Z,39.28
2022-10-24T02:38:00.041Z,39.92
2022-10-24T02:40:27.224Z,39.97
2022-10-24T02:42:58.484Z,39.75
2022-10-24T02:45:26.264Z,37.45
2022-10-24T02:47:57.917Z,40.25
2022-10-24T02:50:26.165Z,41.45
2022-10-24T02:52:53.029Z,37.38
2022-10-24T02:55:20.014Z,39.75
2022-10-24T02:57:46.884Z,37.60
2022-10-24T03:00:14.319Z,39.38
2022-10-24T03:02:41.201Z,37.33
2022-10-24T03:05:08.424Z,39.55
2022-10-24T03:07:35.386Z,35.42
2022-10-24T03:10:02.405Z,36.05
2022-10-24T03:12:29.301Z,37.75
2022-10-24T03:14:56.175Z,36.33
2022-10-24T03:17:23.527Z,35.42
2022-10-24T03:19:50.480Z,37.55
2022-10-24T03:22:17.396Z,37.65
2022-10-24T03:24:54.787Z,35.13
2022-10-24T03:27:22.883Z,33.05
2022-10-24T03:29:49.772Z,32.38
2022-10-24T03:32:16.729Z,32.30
2022-10-24T03:34:43.751Z,37.30
2022-10-24T03:37:10.715Z,32.88
2022-10-24T03:39:37.694Z,33.88
2022-10-24T03:42:04.746Z,34.83
2022-10-24T03:44:31.768Z,33.55
2022-10-24T03:46:58.639Z,35.08
2022-10-24T03:49:25.583Z,38.15
2022-10-24T03:51:52.686Z,37.58
2022-10-24T03:54:19.663Z,39.55
2022-10-24T03:56:47.984Z,44.63
2022-10-24T03:59:15.379Z,42.35
2022-10-24T04:01:42.728Z,39.45
2022-10-24T04:04:09.864Z,39.22
2022-10-24T04:06:36.877Z,37.05
2022-10-24T04:09:04.552Z,38.45
2022-10-24T04:11:31.664Z,37.13
2022-10-24T04:13:59.105Z,39.17
2022-10-24T04:16:26.370Z,37.55
2022-10-24T04:18:53.575Z,38.78
2022-10-24T04:21:21.723Z,37.05
2022-10-24T04:23:49.276Z,35.55
2022-10-24T04:26:17.017Z,39.97
2022-10-24T04:28:46.930Z,36.65
2022-10-24T04:31:17.023Z,37.92
2022-10-24T04:33:46.800Z,37.85
2022-10-24T04:36:13.794Z,37.05
2022-10-24T04:38:41.154Z,35.10
2022-10-24T04:41:11.214Z,38.13
2022-10-24T04:43:39.708Z,35.28
2022-10-24T04:46:07.299Z,35.80
2022-10-24T04:48:34.812Z,33.70
2022-10-24T04:51:03.036Z,38.47
2022-10-24T04:53:30.277Z,36.42
2022-10-24T04:55:57.250Z,34.22
2022-10-24T04:58:24.117Z,31.42
2022-10-24T05:00:51.243Z,32.58
2022-10-24T05:03:19.052Z,36.35
2022-10-24T05:05:46.755Z,32.67
2022-10-24T05:08:13.831Z,33.95
2022-10-24T05:10:40.975Z,34.05
2022-10-24T05:13:07.838Z,33.35
2022-10-24T05:15:34.709Z,36.47
2022-10-24T05:18:01.751Z,32.05
2022-10-24T05:20:28.836Z,32.10
2022-10-24T05:22:56.094Z,32.63
2022-10-24T05:25:23.096Z,32.55
2022-10-24T05:27:50.007Z,34.63
2022-10-24T05:30:16.966Z,36.63
2022-10-24T05:32:44.176Z,31.92
2022-10-24T05:35:11.348Z,32.15
2022-10-24T05:37:39.236Z,32.40
2022-10-24T05:40:10.905Z,32.60
2022-10-24T05:42:38.848Z,32.92
2022-10-24T05:45:10.359Z,31.85
2022-10-24T05:47:37.441Z,32.28
2022-10-24T05:50:05.816Z,31.88
2022-10-24T05:52:32.863Z,31.73
2022-10-24T05:55:07.325Z,33.63
2022-10-24T05:57:36.760Z,33.63
2022-10-24T06:00:06.830Z,34.03
2022-10-24T06:02:33.778Z,35.63
2022-10-24T06:05:00.874Z,33.05
2022-10-24T06:07:27.856Z,33.38
2022-10-24T06:13:42.001Z,34.45
2022-10-24T06:16:10.441Z,32.65
2022-10-24T06:18:38.783Z,32.88
2022-10-24T06:21:07.512Z,33.55
2022-10-24T06:23:35.540Z,30.85
2022-10-24T06:26:02.728Z,32.42
2022-10-24T06:28:29.629Z,31.90
2022-10-24T06:30:56.565Z,31.92
2022-10-24T06:33:23.489Z,30.52
2022-10-24T06:35:50.376Z,32.70
2022-10-24T06:38:17.270Z,33.60
2022-10-24T06:40:44.242Z,32.40
2022-10-24T06:43:11.167Z,32.33
2022-10-24T06:45:38.832Z,31.25
2022-10-24T06:48:06.234Z,32.35
2022-10-24T06:50:33.170Z,30.13
2022-10-24T06:53:00.163Z,30.75
2022-10-24T06:55:27.139Z,31.25
2022-10-24T06:57:54.217Z,30.45
2022-10-24T07:00:21.212Z,31.17
2022-10-24T07:02:48.265Z,29.55
2022-10-24T07:05:15.287Z,30.23
2022-10-24T07:07:43.374Z,32.40
2022-10-24T07:10:13.921Z,30.30
2022-10-24T07:12:41.130Z,30.67
2022-10-24T07:15:08.285Z,32.15
2022-10-24T07:17:42.377Z,30.30
2022-10-24T07:20:10.110Z,30.80
2022-10-24T07:26:27.381Z,29.40
2022-10-24T07:28:58.586Z,30.48
2022-10-24T07:31:29.423Z,31.90
2022-10-24T07:33:56.759Z,32.20
2022-10-24T07:36:26.399Z,31.60
2022-10-24T07:42:34.116Z,31.90
2022-10-24T07:45:02.821Z,31.92
2022-10-24T07:47:29.815Z,34.22
2022-10-24T07:49:57.126Z,34.33
2022-10-24T07:52:24.151Z,32.60
2022-10-24T07:54:54.297Z,36.20
2022-10-24T07:57:22.261Z,33.83
2022-10-24T07:59:49.145Z,33.42
2022-10-24T08:02:17.548Z,33.00
2022-10-24T08:04:45.128Z,33.90
2022-10-24T08:07:15.859Z,33.10
2022-10-24T08:09:45.303Z,31.98
2022-10-24T08:12:12.493Z,30.88
2022-10-24T08:14:40.781Z,31.48
2022-10-24T08:17:08.339Z,30.90
2022-10-24T08:19:35.873Z,29.63
2022-10-24T08:22:03.713Z,31.95
2022-10-24T08:24:30.675Z,32.05
2022-10-24T08:26:57.628Z,32.03
2022-10-24T08:29:25.609Z,30.75
2022-10-24T08:31:54.885Z,29.38
2022-10-24T08:34:23.211Z,30.77
2022-10-24T08:36:50.581Z,31.55
2022-10-24T08:39:18.568Z,29.02
2022-10-24T08:41:47.403Z,29.50
2022-10-24T08:44:29.626Z,30.00
2022-10-24T08:47:06.479Z,30.60
2022-10-24T08:49:47.922Z,30.58
2022-10-24T08:52:37.603Z,32.97
2022-10-24T08:58:17.395Z,30.67
2022-10-24T09:00:49.952Z,29.08
2022-10-24T09:03:56.024Z,30.38
2022-10-24T09:06:27.081Z,32.03
2022-10-24T09:09:02.944Z,32.40
2022-10-24T09:11:56.993Z,30.75
2022-10-24T09:14:28.336Z,35.28
2022-10-24T09:19:58.619Z,30.05
2022-10-24T09:22:29.625Z,29.67
2022-10-24T09:25:08.356Z,30.48
2022-10-24T09:27:37.798Z,29.52
2022-10-24T09:30:07.182Z,31.67
2022-10-24T09:32:36.545Z,29.50
2022-10-24T09:35:27.808Z,29.83
2022-10-24T09:38:18.573Z,29.13
2022-10-24T09:40:51.353Z,30.92
2022-10-24T09:43:21.954Z,31.50
2022-10-24T09:46:01.275Z,29.50
2022-10-24T09:48:32.708Z,31.90
2022-10-24T09:51:00.460Z,30.85
2022-10-24T09:53:55.437Z,30.23
2022-10-24T09:56:22.328Z,30.42
2022-10-24T09:58:50.593Z,29.90
2022-10-24T10:01:21.294Z,29.27
2022-10-24T10:04:18.385Z,29.00
2022-10-24T10:06:50.328Z,30.33
2022-10-24T10:09:27.541Z,29.55
2022-10-24T10:12:02.972Z,30.92
2022-10-24T10:14:30.799Z,29.30
2022-10-24T10:17:06.426Z,28.15
2022-10-24T10:19:38.025Z,29.77
2022-10-24T10:22:20.996Z,28.95
2022-10-24T10:24:48.355Z,29.25
2022-10-24T10:27:26.548Z,25.48
2022-10-24T10:30:12.177Z,26.40
2022-10-24T10:32:53.791Z,27.00
2022-10-24T10:35:33.214Z,24.98
2022-10-24T10:38:34.120Z,26.23
2022-10-24T10:41:08.343Z,24.85
2022-10-24T10:43:48.460Z,24.15
2022-10-24T10:46:32.060Z,25.20
2022-10-24T10:49:23.167Z,23.67
2022-10-24T10:51:56.180Z,24.85
2022-10-24T10:54:46.383Z,23.38
2022-10-24T10:57:14.343Z,23.23
2022-10-24T10:59:44.771Z,22.42
2022-10-24T11:02:25.378Z,22.40
2022-10-24T11:05:02.526Z,22.38
2022-10-24T11:07:45.041Z,21.88
2022-10-24T11:10:24.840Z,20.65
2022-10-24T11:12:54.352Z,20.38
2022-10-24T11:15:29.426Z,20.73
2022-10-24T11:21:45.060Z,19.05
2022-10-24T11:24:18.920Z,19.15
2022-10-24T11:26:52.953Z,18.42
2022-10-24T11:29:31.322Z,18.38
2022-10-24T11:32:09.386Z,19.52
2022-10-24T11:34:44.571Z,18.55
2022-10-24T11:37:21.151Z,18.80
2022-10-24T11:40:03.336Z,18.42
2022-10-24T11:43:08.099Z,19.70
2022-10-24T11:45:58.152Z,19.27
2022-10-24T11:49:11.903Z,20.15
2022-10-24T11:51:47.687Z,20.52
2022-10-24T11:54:22.824Z,21.50
2022-10-24T11:56:57.770Z,21.23
2022-10-24T11:59:25.717Z,22.38
2022-10-24T12:01:55.714Z,21.73
2022-10-24T12:04:37.268Z,23.27
2022-10-24T12:07:36.669Z,21.90
2022-10-24T12:14:21.017Z,22.10
2022-10-24T12:16:53.296Z,20.33
2022-10-24T12:19:22.540Z,19.58
2022-10-24T12:21:57.604Z,20.05
2022-10-24T12:24:33.311Z,19.50
2022-10-24T12:27:20.341Z,17.67
2022-10-24T12:30:09.399Z,19.15
2022-10-24T12:32:45.240Z,20.55
2022-10-24T12:35:31.632Z,21.10
2022-10-24T12:37:59.415Z,21.00
2022-10-24T12:40:47.989Z,20.30
2022-10-24T12:43:34.697Z,22.13
2022-10-24T12:46:16.698Z,21.50
2022-10-24T12:49:01.221Z,22.15
2022-10-24T12:55:51.904Z,22.65
2022-10-24T12:58:21.598Z,23.02
2022-10-24T13:01:01.179Z,24.13
2022-10-24T13:03:55.500Z,23.10
2022-10-24T13:06:58.175Z,23.90
2022-10-24T13:09:38.445Z,28.20
2022-10-24T13:12:43.886Z,26.17
2022-10-24T13:15:19.904Z,25.42
2022-10-24T13:18:23.480Z,26.33
2022-10-24T13:21:44.108Z,26.27
2022-10-24T13:24:24.440Z,26.13
2022-10-24T13:26:55.850Z,26.80
2022-10-24T13:29:28.578Z,25.48
2022-10-24T13:32:18.690Z,27.63
2022-10-24T13:34:50.599Z,27.35
2022-10-24T13:37:27.439Z,24.98
2022-10-24T13:40:27.078Z,23.27
2022-10-24T13:43:07.455Z,20.67
2022-10-24T13:45:57.930Z,20.42
2022-10-24T13:48:28.869Z,20.00
2022-10-24T13:51:34.950Z,18.35
2022-10-24T13:54:09.306Z,19.38
2022-10-24T13:59:04.743Z,17.88
2022-10-24T14:01:31.894Z,17.45
2022-10-24T14:04:00.752Z,18.15
2022-10-24T14:06:33.807Z,17.48
2022-10-24T14:09:11.739Z,17.60
2022-10-24T14:11:46.368Z,17.13
2022-10-24T14:14:29.202Z,18.70
2022-10-24T14:17:29.380Z,15.68
2022-10-24T14:20:24.339Z,14.43
2022-10-24T14:25:35.353Z,15.43
2022-10-24T14:28:10.449Z,15.98
2022-10-24T14:30:37.421Z,16.33
2022-10-24T14:33:28.437Z,16.65
2022-10-24T14:35:58.184Z,16.00
2022-10-24T14:38:27.709Z,16.45
2022-10-24T14:41:07.905Z,16.60
2022-10-24T14:43:40.019Z,16.40
2022-10-24T14:46:13.226Z,17.42
2022-10-24T14:48:43.518Z,16.83
2022-10-24T14:51:37.703Z,16.45
2022-10-24T14:54:19.310Z,15.75
2022-10-24T15:00:39.690Z,16.38
2022-10-24T15:03:07.087Z,17.10
2022-10-24T15:05:35.639Z,17.88
2022-10-24T15:08:21.716Z,17.10
2022-10-24T15:10:49.878Z,18.05
2022-10-24T15:13:21.384Z,16.67
2022-10-24T15:15:53.924Z,16.60
2022-10-24T15:18:23.882Z,18.10
2022-10-24T15:21:02.162Z,17.08
2022-10-24T15:23:35.317Z,19.08
2022-10-24T15:26:09.895Z,17.70
2022-10-24T15:28:36.760Z,18.45
2022-10-24T15:31:03.992Z,17.63
2022-10-24T15:33:32.387Z,17.73
2022-10-24T15:35:59.449Z,18.65
2022-10-24T15:38:26.387Z,18.23
2022-10-24T15:40:53.802Z,18.67
2022-10-24T15:43:20.784Z,18.90
2022-10-24T15:45:47.698Z,18.48
2022-10-24T15:48:14.621Z,18.95
2022-10-24T15:50:46.698Z,18.20
2022-10-24T15:53:21.813Z,20.08
2022-10-24T15:55:48.894Z,17.90
2022-10-24T15:58:18.167Z,21.65
2022-10-24T16:00:45.615Z,23.00
2022-10-24T16:03:17.314Z,20.30
2022-10-24T16:05:47.701Z,19.40
2022-10-24T16:08:16.349Z,20.10
2022-10-24T16:10:43.745Z,18.83
2022-10-24T16:13:13.537Z,18.15
2022-10-24T16:15:41.427Z,19.55
2022-10-24T16:18:09.258Z,20.35
2022-10-24T16:20:36.320Z,20.10
2022-10-24T16:23:04.575Z,18.20
2022-10-24T16:25:37.595Z,19.90
2022-10-24T16:28:06.010Z,19.50
2022-10-24T16:30:35.561Z,19.83
2022-10-24T16:33:02.535Z,21.83
2022-10-24T16:35:32.917Z,21.50
2022-10-24T16:38:01.828Z,21.23
2022-10-24T16:40:31.212Z,20.02
2022-10-24T16:42:59.622Z,21.02
2022-10-24T16:45:26.567Z,21.05
2022-10-24T16:47:53.603Z,21.60
2022-10-24T16:50:26.802Z,21.42
2022-10-24T16:52:55.737Z,24.33
2022-10-24T16:55:23.342Z,21.75
2022-10-24T16:57:50.646Z,22.98
2022-10-24T17:00:19.528Z,22.33
2022-10-24T17:02:50.530Z,22.70
2022-10-24T17:05:20.568Z,22.95
2022-10-24T17:07:47.941Z,22.58
2022-10-24T17:10:18.401Z,23.02
2022-10-24T17:12:47.793Z,23.52
2022-10-24T17:15:18.138Z,22.00
2022-10-24T17:17:48.371Z,24.08
2022-10-24T17:20:15.968Z,24.42
2022-10-24T17:22:44.538Z,24.08
2022-10-24T17:25:24.972Z,25.33
2022-10-24T17:27:52.340Z,23.33
2022-10-24T17:30:22.632Z,25.05
2022-10-24T17:32:50.054Z,24.92
2022-10-24T17:35:20.735Z,26.45
2022-10-24T17:37:52.728Z,26.90
2022-10-24T17:40:22.711Z,27.25
2022-10-24T17:42:49.826Z,26.70
2022-10-24T17:45:25.192Z,25.67
2022-10-24T17:47:52.329Z,27.90
2022-10-24T17:50:19.543Z,27.02
2022-10-24T17:52:51.036Z,27.42
2022-10-24T17:58:11.909Z,27.67
2022-10-24T18:00:39.305Z,32.67
2022-10-24T18:03:08.673Z,32.03
2022-10-24T18:05:38.306Z,29.58
2022-10-24T18:11:53.102Z,29.23
2022-10-24T18:14:20.013Z,30.23
2022-10-24T18:16:47.081Z,30.35
2022-10-24T18:19:14.030Z,29.95
2022-10-24T18:25:29.096Z,28.23
2022-10-24T18:27:57.009Z,29.42
2022-10-24T18:30:24.111Z,27.90
2022-10-24T18:32:51.194Z,28.60
2022-10-24T18:35:18.207Z,28.05
2022-10-24T18:37:45.163Z,28.58
2022-10-24T18:40:12.902Z,30.73
2022-10-24T18:43:05.338Z,31.27
2022-10-24T18:45:33.111Z,30.42
2022-10-24T18:48:00.799Z,28.92
2022-10-24T18:50:29.087Z,31.38
2022-10-24T18:53:06.078Z,31.80
2022-10-24T18:55:34.691Z,31.98
2022-10-24T18:58:01.919Z,31.25
2022-10-24T19:04:25.713Z,33.53
2022-10-24T19:06:59.636Z,34.97
2022-10-24T19:09:27.278Z,35.53
2022-10-24T19:11:54.318Z,36.80
2022-10-24T19:14:21.678Z,34.13
2022-10-24T19:16:50.663Z,33.72
2022-10-24T19:19:30.262Z,35.08
2022-10-24T19:21:57.274Z,30.63
2022-10-24T19:24:24.219Z,29.73
2022-10-24T19:26:51.209Z,28.73
2022-10-24T19:29:18.267Z,28.73
2022-10-24T19:31:45.950Z,28.30
2022-10-24T19:34:13.022Z,29.63
2022-10-24T19:36:40.090Z,31.52
2022-10-24T19:39:07.587Z,28.90
2022-10-24T19:41:35.616Z,30.45
2022-10-24T19:44:03.636Z,33.13
2022-10-24T19:46:30.593Z,33.25
2022-10-24T19:48:57.587Z,36.45
2022-10-24T19:51:25.388Z,36.50
2022-10-24T19:53:53.214Z,36.22
2022-10-24T19:56:25.417Z,34.03
2022-10-24T19:58:53.990Z,34.45
2022-10-24T20:01:23.723Z,33.83
2022-10-24T20:03:51.518Z,31.88
2022-10-24T20:06:21.826Z,33.83
2022-10-24T20:08:49.813Z,32.83
2022-10-24T20:11:20.732Z,36.20
2022-10-24T20:13:48.620Z,33.85
2022-10-24T20:16:15.561Z,35.78
2022-10-24T20:18:43.819Z,35.58
2022-10-24T20:21:14.057Z,34.80
2022-10-24T20:23:41.810Z,34.88
2022-10-24T20:26:17.510Z,36.30
2022-10-24T20:28:46.448Z,36.42
2022-10-24T20:31:39.305Z,36.53
2022-10-24T20:34:11.134Z,34.72
2022-10-24T20:36:40.563Z,38.08
2022-10-24T20:39:08.778Z,34.00
2022-10-24T20:41:36.859Z,35.40
2022-10-24T20:44:04.582Z,35.45
2022-10-24T20:46:31.818Z,35.50
2022-10-24T20:48:58.799Z,34.60
2022-10-24T20:51:25.747Z,32.30
2022-10-24T20:53:52.734Z,32.70
2022-10-24T20:56:22.595Z,31.60
2022-10-24T20:58:51.070Z,31.88
2022-10-24T21:01:21.196Z,32.58
2022-10-24T21:03:49.416Z,32.65
2022-10-24T21:06:25.471Z,31.55
2022-10-24T21:08:54.441Z,29.40
2022-10-24T21:11:26.010Z,29.35
2022-10-24T21:13:55.286Z,29.55
2022-10-24T21:16:22.668Z,28.65
2022-10-24T21:18:49.776Z,27.83
2022-10-24T21:21:20.849Z,27.13
2022-10-24T21:23:52.523Z,27.45
2022-10-24T21:26:20.242Z,28.02
2022-10-24T21:28:47.412Z,27.65
2022-10-24T21:31:17.159Z,27.50
2022-10-24T21:33:44.571Z,28.13
2022-10-24T21:36:16.117Z,27.45
2022-10-24T21:38:47.107Z,26.90
2022-10-24T21:45:01.075Z,24.35
2022-10-24T21:47:28.315Z,25.13
2022-10-24T21:49:55.167Z,25.77
2022-10-24T21:52:22.146Z,23.83
2022-10-24T21:54:49.054Z,24.58
2022-10-24T21:57:15.975Z,23.55
2022-10-24T22:03:30.210Z,23.35
2022-10-24T22:05:57.703Z,22.40
2022-10-24T22:08:24.924Z,23.75
2022-10-24T22:11:00.347Z,23.02
2022-10-24T22:13:28.042Z,21.90
2022-10-24T22:15:55.809Z,21.58
2022-10-24T22:18:24.307Z,20.92
2022-10-24T22:20:51.224Z,20.60
2022-10-24T22:23:18.491Z,19.63
2022-10-24T22:25:45.490Z,18.33
2022-10-24T22:28:12.793Z,20.45
2022-10-24T22:30:40.612Z,19.15
2022-10-24T22:33:16.529Z,19.17
2022-10-24T22:35:45.152Z,19.05
2022-10-24T22:38:12.291Z,18.02
2022-10-24T22:40:39.456Z,17.67
2022-10-24T22:43:06.652Z,16.63
2022-10-24T22:45:33.921Z,16.80
2022-10-24T22:48:06.803Z,16.15
2022-10-24T22:50:42.492Z,15.57
2022-10-24T22:53:14.526Z,15.15
2022-10-24T22:56:06.183Z,14.25
2022-10-24T22:58:33.595Z,15.13
2022-10-24T23:01:28.623Z,14.43
2022-10-24T23:06:45.878Z,14.65
2022-10-24T23:09:13.175Z,15.18
2022-10-24T23:11:40.887Z,15.80
2022-10-24T23:14:08.170Z,14.30
2022-10-24T23:16:47.049Z,15.02
2022-10-24T23:19:22.978Z,13.57
2022-10-24T23:22:13.522Z,14.30
2022-10-24T23:24:40.722Z,13.30
2022-10-24T23:27:13.522Z,13.00
2022-10-24T23:29:43.171Z,12.68
2022-10-24T23:32:25.583Z,12.68
2022-10-24T23:34:53.751Z,12.23
2022-10-24T23:37:20.550Z,12.88
2022-10-24T23:39:47.716Z,13.05
2022-10-24T23:42:14.881Z,12.45
2022-10-24T23:44:42.046Z,14.02
2022-10-24T23:47:43.046Z,12.60
2022-10-24T23:50:17.501Z,12.52
2022-10-24T23:52:58.146Z,12.77
2022-10-24T23:55:25.401Z,12.02
2022-10-24T23:57:52.296Z,11.95
